Hlavní strana
METAR-TAF:

METAR-TAF

Letiště :

Mezinárodní letiště Džinnáh

Karáčí, Pákistán

zeměpisná šířka: 24-54N, zeměpisná délka: 067-08E, výška: 21 m

Aktuální stav počasí

Zpráva byla vytvořena před 28 minutami, v 22:55 UTC
Západní vítr 5 kt
Teplota 28°C
Vlhkost vzduchu 51%
Tlak 1011 hPa
Viditelnost: 6000 m
Oblačno až skoro zataženo ve výšce 10000 ft

METAR: OPKC 152255Z 26005KT 6000 BKN100 28/17 Q1011 NOSIG

Čas: 04:23 (23:23 UTC)

Předpověď počasí

Zpráva byla vytvořena před 4 hodinami a 53 minutami, v 18:30 UTC
Předpověď platná od 15 v 21 UTC do 16 v 06 UTC
Západní vítr 6 kt
Viditelnost: 5000 m
Oblačno až skoro zataženo ve výšce 10000 ft
zákal
Dočasný
od 16 v 00 UTC do 16 v 04 UTC
vítr z různých směrů 3 kt
Viditelnost: 3000 m
Polojasno ve výšce 3000 ft
kouř

TAF: OPKC 151830Z 1521/1606 27006KT 5000 HZ BKN100 TEMPO 1600/1604 VRB03KT 3000 FU SCT030

Stav a předpovědi počasí z více než 4 000 letišť (zprávy METAR a TAF).

Červené a žluté tečky na mapě představují dostupné meteorologické stanice.

Když kurzor umístíte na tečku, zobrazí se název stanice.

Pak kliknutím zobrazíte stav a předpověď počasí.

Chcete-li změnit mapu, kliknutím na zelené tlačítko se znaménkem +mapu přiblížíte, kliknutím na zelené tlačítko se znaménkem – mapu oddálíte a kliknutím na zelené šipky přejdete na sousední mapy.


METAR-TAF: